createdAt,value
2017-06-13T00:00:33.134Z,0
2017-06-13T00:01:13.627Z,0
2017-06-13T00:01:54.118Z,0
2017-06-13T00:04:27.247Z,0
2017-06-13T00:05:07.717Z,0
2017-06-13T00:07:40.735Z,0
2017-06-13T00:08:21.191Z,0
2017-06-13T00:09:01.657Z,0
2017-06-13T00:09:42.129Z,0
2017-06-13T00:11:54.886Z,0
2017-06-13T00:12:35.373Z,0
2017-06-13T00:13:15.863Z,0
2017-06-13T00:13:56.361Z,0
2017-06-13T00:14:36.847Z,0
2017-06-13T00:15:17.331Z,0
2017-06-13T00:15:57.823Z,0
2017-06-13T00:16:38.316Z,0
2017-06-13T00:17:18.809Z,0
2017-06-13T00:17:59.311Z,0
2017-06-13T00:18:39.804Z,0
2017-06-13T00:19:20.295Z,0
2017-06-13T00:20:00.797Z,0
2017-06-13T00:20:42.072Z,0
2017-06-13T00:21:22.571Z,0
2017-06-13T00:22:03.054Z,0
2017-06-13T00:22:43.529Z,0
2017-06-13T00:23:24.021Z,0
2017-06-13T00:24:04.516Z,0
2017-06-13T00:24:44.998Z,0
2017-06-13T00:25:26.274Z,0
2017-06-13T00:26:06.763Z,0
2017-06-13T00:26:47.253Z,0
2017-06-13T00:27:27.771Z,0
2017-06-13T00:28:08.250Z,0
2017-06-13T00:28:48.732Z,0
2017-06-13T00:29:29.217Z,0
2017-06-13T00:30:09.710Z,0
2017-06-13T00:30:50.205Z,0
2017-06-13T00:31:30.686Z,0
2017-06-13T00:32:11.160Z,0
2017-06-13T00:32:51.651Z,0
2017-06-13T00:33:32.144Z,0
2017-06-13T00:34:12.632Z,0
2017-06-13T00:34:53.127Z,0
2017-06-13T00:35:33.621Z,0
2017-06-13T00:36:14.143Z,0
2017-06-13T00:36:54.637Z,0
2017-06-13T00:37:35.126Z,0
2017-06-13T00:38:15.619Z,0
2017-06-13T00:38:56.123Z,0
2017-06-13T00:39:36.612Z,0
2017-06-13T00:40:17.105Z,0
2017-06-13T00:40:57.595Z,0
2017-06-13T00:41:38.101Z,0
2017-06-13T00:42:18.604Z,0
2017-06-13T00:42:59.100Z,0
2017-06-13T00:43:39.593Z,0
2017-06-13T00:44:20.098Z,0
2017-06-13T00:45:00.579Z,0
2017-06-13T00:45:41.076Z,0
2017-06-13T00:46:21.569Z,0
2017-06-13T00:47:02.057Z,0
2017-06-13T00:47:42.557Z,0
2017-06-13T00:48:23.052Z,0
2017-06-13T00:49:03.537Z,0
2017-06-13T00:49:44.026Z,0
2017-06-13T00:50:24.529Z,0
2017-06-13T00:51:05.009Z,0
2017-06-13T00:51:45.505Z,0
2017-06-13T00:52:25.997Z,0
2017-06-13T00:53:06.482Z,0
2017-06-13T00:53:46.981Z,0
2017-06-13T00:54:27.471Z,0
2017-06-13T00:55:07.957Z,0
2017-06-13T00:55:48.459Z,0
2017-06-13T00:56:28.947Z,0
2017-06-13T00:57:09.442Z,0
2017-06-13T00:57:49.935Z,0
2017-06-13T00:58:30.423Z,0
2017-06-13T00:59:10.918Z,0
2017-06-13T00:59:51.415Z,0
2017-06-13T01:00:31.912Z,0
2017-06-13T01:01:12.400Z,0
2017-06-13T01:01:52.892Z,0
2017-06-13T01:02:33.394Z,0
2017-06-13T01:03:13.878Z,0
2017-06-13T01:03:54.367Z,0
2017-06-13T01:04:34.869Z,0
2017-06-13T01:05:15.339Z,0
2017-06-13T01:05:55.843Z,0
2017-06-13T01:06:36.350Z,0
2017-06-13T01:07:16.806Z,0
2017-06-13T01:07:57.304Z,0
2017-06-13T01:08:37.869Z,0
2017-06-13T01:09:18.375Z,0
2017-06-13T01:09:58.847Z,0
2017-06-13T01:10:39.322Z,0
2017-06-13T01:11:19.816Z,0
2017-06-13T01:12:00.322Z,0
2017-06-13T01:12:40.801Z,0
2017-06-13T01:13:21.293Z,0
2017-06-13T01:14:01.794Z,0
2017-06-13T01:14:42.281Z,0
2017-06-13T01:15:22.773Z,0
2017-06-13T01:16:03.245Z,0
2017-06-13T01:16:43.743Z,0
2017-06-13T01:17:25.200Z,0
2017-06-13T01:18:05.685Z,0
2017-06-13T01:18:46.186Z,0
2017-06-13T01:19:26.678Z,0
2017-06-13T01:20:07.182Z,0
2017-06-13T01:20:47.688Z,0
2017-06-13T01:21:28.168Z,0
2017-06-13T01:22:08.650Z,0
2017-06-13T01:22:49.143Z,0
2017-06-13T01:23:29.624Z,0
2017-06-13T01:24:10.117Z,0
2017-06-13T01:24:50.607Z,0
2017-06-13T01:25:31.109Z,0
2017-06-13T01:26:11.603Z,0
2017-06-13T01:26:52.098Z,0
2017-06-13T01:27:32.589Z,0
2017-06-13T01:28:13.066Z,0
2017-06-13T01:30:25.801Z,0
2017-06-13T01:31:06.282Z,0
2017-06-13T01:31:46.775Z,0
2017-06-13T01:32:27.271Z,0
2017-06-13T01:33:07.761Z,0
2017-06-13T01:33:48.253Z,0
2017-06-13T01:34:28.803Z,0
2017-06-13T01:35:09.217Z,0
2017-06-13T01:35:49.714Z,0
2017-06-13T01:36:30.238Z,0
2017-06-13T01:37:10.713Z,0
2017-06-13T01:37:51.208Z,0
2017-06-13T01:38:31.687Z,0
2017-06-13T01:39:12.168Z,0
2017-06-13T01:39:52.657Z,0
2017-06-13T01:40:33.152Z,0
2017-06-13T01:41:13.644Z,0
2017-06-13T01:41:54.136Z,0
2017-06-13T01:42:34.651Z,0
2017-06-13T01:43:15.154Z,0
2017-06-13T01:43:55.638Z,0
2017-06-13T01:44:36.128Z,0
2017-06-13T01:45:16.624Z,0
2017-06-13T01:45:57.118Z,0
2017-06-13T01:46:37.605Z,0
2017-06-13T01:47:18.091Z,0
2017-06-13T01:47:58.594Z,0
2017-06-13T01:48:39.084Z,0
2017-06-13T01:49:19.578Z,0
2017-06-13T01:50:01.002Z,0
2017-06-13T01:50:41.496Z,0
2017-06-13T01:51:21.979Z,0
2017-06-13T01:52:02.469Z,0
2017-06-13T01:52:42.962Z,0
2017-06-13T01:53:23.455Z,0
2017-06-13T01:54:03.948Z,0
2017-06-13T01:54:44.438Z,0
2017-06-13T01:55:24.917Z,0
2017-06-13T01:56:05.412Z,0
2017-06-13T01:56:45.903Z,0
2017-06-13T01:57:26.413Z,0
2017-06-13T01:58:06.880Z,0
2017-06-13T01:58:47.369Z,0
2017-06-13T01:59:27.887Z,0
2017-06-13T02:00:08.389Z,0
2017-06-13T02:00:48.887Z,0
2017-06-13T02:01:29.373Z,0
2017-06-13T02:02:09.856Z,0
2017-06-13T02:02:50.342Z,0
2017-06-13T02:03:30.820Z,0
2017-06-13T02:04:11.316Z,0
2017-06-13T02:04:51.815Z,0
2017-06-13T02:05:32.307Z,0
2017-06-13T02:06:12.812Z,0
2017-06-13T02:06:53.305Z,0
2017-06-13T02:07:33.799Z,0
2017-06-13T02:08:14.293Z,0
2017-06-13T02:08:54.788Z,0
2017-06-13T02:09:35.273Z,0
2017-06-13T02:10:15.766Z,0
2017-06-13T02:10:56.265Z,0
2017-06-13T02:11:36.747Z,0
2017-06-13T02:12:17.242Z,0
2017-06-13T02:12:57.731Z,0
2017-06-13T02:13:38.223Z,0
2017-06-13T02:14:18.694Z,0
2017-06-13T02:14:59.185Z,0
2017-06-13T02:15:39.672Z,0
2017-06-13T02:16:20.164Z,0
2017-06-13T02:17:00.663Z,0
2017-06-13T02:17:41.157Z,0
2017-06-13T02:18:21.659Z,0
2017-06-13T02:19:02.131Z,0
2017-06-13T02:19:42.622Z,0
2017-06-13T02:20:24.144Z,0
2017-06-13T02:21:04.633Z,0
2017-06-13T02:21:45.126Z,0
2017-06-13T02:22:25.621Z,0
2017-06-13T02:23:06.095Z,0
2017-06-13T02:23:46.610Z,0
2017-06-13T02:24:27.083Z,0
2017-06-13T02:25:07.587Z,0
2017-06-13T02:25:48.072Z,0
2017-06-13T02:26:28.563Z,0
2017-06-13T02:27:09.054Z,0
2017-06-13T02:27:49.555Z,0
2017-06-13T02:28:30.052Z,0
2017-06-13T02:29:10.542Z,0
2017-06-13T02:29:51.072Z,0
2017-06-13T02:30:31.564Z,0
2017-06-13T02:31:12.067Z,0
2017-06-13T02:31:52.547Z,0
2017-06-13T02:32:33.054Z,0
2017-06-13T02:33:13.550Z,0
2017-06-13T02:33:54.037Z,0
2017-06-13T02:34:34.521Z,0
2017-06-13T02:35:15.010Z,0
2017-06-13T02:35:55.501Z,0
2017-06-13T02:36:35.991Z,0
2017-06-13T02:37:16.485Z,0
2017-06-13T02:37:56.976Z,0
2017-06-13T02:38:37.469Z,0
2017-06-13T02:39:17.956Z,0
2017-06-13T02:39:58.451Z,0
2017-06-13T02:40:38.956Z,0
2017-06-13T02:41:19.456Z,0
2017-06-13T02:41:59.933Z,0
2017-06-13T02:42:40.431Z,0
2017-06-13T02:43:20.907Z,0
2017-06-13T02:44:01.399Z,0
2017-06-13T02:44:41.890Z,0
2017-06-13T02:45:22.392Z,0
2017-06-13T02:46:02.892Z,0
2017-06-13T02:46:43.389Z,0
2017-06-13T02:47:23.875Z,0
2017-06-13T02:48:04.401Z,0
2017-06-13T02:48:44.891Z,0
2017-06-13T02:49:25.382Z,0
2017-06-13T02:50:05.877Z,0
2017-06-13T02:50:46.366Z,0
2017-06-13T02:51:26.856Z,0
2017-06-13T02:52:07.352Z,0
2017-06-13T02:52:47.842Z,0
2017-06-13T02:53:28.334Z,0
2017-06-13T02:54:08.837Z,0
2017-06-13T02:54:49.318Z,0
2017-06-13T02:55:29.832Z,0
2017-06-13T02:56:10.294Z,0
2017-06-13T02:56:50.790Z,0
2017-06-13T02:57:31.274Z,0
2017-06-13T02:58:11.774Z,0
2017-06-13T02:58:52.273Z,0
2017-06-13T02:59:32.749Z,0
2017-06-13T03:00:13.241Z,0
2017-06-13T03:00:53.747Z,0
2017-06-13T03:01:34.235Z,0
2017-06-13T03:02:14.739Z,0
2017-06-13T03:02:55.227Z,0
2017-06-13T03:03:35.724Z,0
2017-06-13T03:04:16.221Z,0
2017-06-13T03:04:56.711Z,0
2017-06-13T03:05:37.206Z,0
2017-06-13T03:06:17.695Z,0
2017-06-13T03:06:58.171Z,0
2017-06-13T03:07:38.665Z,0
2017-06-13T03:08:19.152Z,0
2017-06-13T03:08:59.686Z,0
2017-06-13T03:09:40.188Z,0
2017-06-13T03:10:20.680Z,0
2017-06-13T03:11:01.164Z,0
2017-06-13T03:11:41.664Z,0
2017-06-13T03:12:22.157Z,0
2017-06-13T03:13:02.648Z,0
2017-06-13T03:13:43.140Z,0
2017-06-13T03:14:23.643Z,0
2017-06-13T03:15:04.116Z,0
2017-06-13T03:15:44.596Z,0
2017-06-13T03:16:25.086Z,0
2017-06-13T03:17:05.583Z,0
2017-06-13T03:17:46.064Z,5
2017-06-13T03:18:26.554Z,5
2017-06-13T03:19:07.039Z,5
2017-06-13T03:19:47.536Z,5
2017-06-13T03:20:28.028Z,5
2017-06-13T03:21:08.522Z,5
2017-06-13T03:21:49.018Z,5
2017-06-13T03:22:29.510Z,5
2017-06-13T03:23:10.028Z,5
2017-06-13T03:23:50.491Z,5
2017-06-13T03:24:30.987Z,5
2017-06-13T03:25:11.469Z,5
2017-06-13T03:25:51.958Z,5
2017-06-13T03:26:32.467Z,5
2017-06-13T03:27:12.946Z,10
2017-06-13T03:27:53.437Z,10
2017-06-13T03:28:33.942Z,10
2017-06-13T03:29:15.042Z,10
2017-06-13T03:29:55.509Z,10
2017-06-13T03:30:36.020Z,10
2017-06-13T03:31:16.491Z,10
2017-06-13T03:31:56.982Z,10
2017-06-13T03:32:37.477Z,10
2017-06-13T03:33:17.967Z,10
2017-06-13T03:33:58.457Z,15
2017-06-13T03:34:38.945Z,15
2017-06-13T03:35:19.446Z,15
2017-06-13T03:35:59.935Z,15
2017-06-13T03:36:40.433Z,15
2017-06-13T03:37:20.925Z,15
2017-06-13T03:38:01.416Z,15
2017-06-13T03:38:41.907Z,15
2017-06-13T03:39:22.409Z,15
2017-06-13T03:40:02.901Z,20
2017-06-13T03:40:43.389Z,20
2017-06-13T03:41:23.882Z,20
2017-06-13T03:42:04.368Z,20
2017-06-13T03:42:44.862Z,20
2017-06-13T03:43:25.355Z,20
2017-06-13T03:44:05.856Z,20
2017-06-13T03:44:46.339Z,20
2017-06-13T03:45:26.833Z,20
2017-06-13T03:46:07.326Z,25
2017-06-13T03:46:47.815Z,25
2017-06-13T03:47:28.291Z,25
2017-06-13T03:48:08.801Z,25
2017-06-13T03:48:49.307Z,25
2017-06-13T03:49:29.784Z,25
2017-06-13T03:50:10.277Z,25
2017-06-13T03:50:50.804Z,25
2017-06-13T03:51:31.306Z,30
2017-06-13T03:52:11.791Z,30
2017-06-13T03:52:52.284Z,30
2017-06-13T03:53:32.776Z,30
2017-06-13T03:54:13.264Z,30
2017-06-13T03:54:53.761Z,30
2017-06-13T03:55:34.250Z,30
2017-06-13T03:56:14.743Z,30
2017-06-13T03:56:55.242Z,35
2017-06-13T03:57:35.741Z,35
2017-06-13T03:58:16.223Z,35
2017-06-13T03:58:56.716Z,35
2017-06-13T03:59:37.208Z,35
2017-06-13T04:00:17.723Z,35
2017-06-13T04:00:58.194Z,35
2017-06-13T04:01:38.677Z,40
2017-06-13T04:02:19.158Z,40
2017-06-13T04:02:59.675Z,40
2017-06-13T04:03:40.164Z,40
2017-06-13T04:04:20.641Z,40
2017-06-13T04:06:53.664Z,40
2017-06-13T04:07:34.171Z,45
2017-06-13T04:08:14.656Z,45
2017-06-13T04:08:55.154Z,45
2017-06-13T04:09:35.647Z,45
2017-06-13T04:10:16.134Z,45
2017-06-13T04:10:56.631Z,45
2017-06-13T04:11:37.115Z,45
2017-06-13T04:12:17.607Z,45
2017-06-13T04:12:58.100Z,50
2017-06-13T04:13:38.615Z,50
2017-06-13T04:14:19.109Z,50
2017-06-13T04:14:59.586Z,50
2017-06-13T04:15:40.074Z,50
2017-06-13T04:16:20.570Z,55
2017-06-13T04:17:01.064Z,55
2017-06-13T04:17:41.556Z,55
2017-06-13T04:18:22.047Z,55
2017-06-13T04:19:02.544Z,55
2017-06-13T04:19:43.017Z,60
2017-06-13T04:20:23.568Z,60
2017-06-13T04:21:04.018Z,60
2017-06-13T04:21:44.510Z,60
2017-06-13T04:22:24.993Z,60
2017-06-13T04:23:05.482Z,60
2017-06-13T04:23:45.959Z,65
2017-06-13T04:24:26.465Z,65
2017-06-13T04:25:06.960Z,65
2017-06-13T04:25:47.448Z,65
2017-06-13T04:26:27.955Z,65
2017-06-13T04:27:08.444Z,65
2017-06-13T04:27:48.942Z,70
2017-06-13T04:28:29.447Z,70
2017-06-13T04:29:09.929Z,70
2017-06-13T04:29:50.420Z,70
2017-06-13T04:30:30.913Z,70
2017-06-13T04:31:11.392Z,70
2017-06-13T04:31:51.868Z,70
2017-06-13T04:32:32.358Z,75
2017-06-13T04:33:12.845Z,75
2017-06-13T04:33:53.330Z,75
2017-06-13T04:34:33.832Z,75
2017-06-13T04:35:14.323Z,80
2017-06-13T04:35:54.819Z,90
2017-06-13T04:36:35.339Z,95
2017-06-13T04:37:15.837Z,105
2017-06-13T04:37:56.331Z,105
2017-06-13T04:38:36.857Z,110
2017-06-13T04:39:17.348Z,110
2017-06-13T04:39:57.838Z,110
2017-06-13T04:40:38.333Z,110
2017-06-13T04:41:18.813Z,115
2017-06-13T04:41:59.313Z,115
2017-06-13T04:42:39.809Z,115
2017-06-13T04:43:20.307Z,115
2017-06-13T04:44:00.779Z,120
2017-06-13T04:44:41.272Z,120
2017-06-13T04:45:21.738Z,120
2017-06-13T04:46:02.238Z,120
2017-06-13T04:46:42.724Z,125
2017-06-13T04:47:23.224Z,125
2017-06-13T04:48:03.721Z,125
2017-06-13T04:48:44.245Z,125
2017-06-13T04:49:24.742Z,125
2017-06-13T04:50:05.237Z,130
2017-06-13T04:50:45.717Z,130
2017-06-13T04:51:26.213Z,130
2017-06-13T04:52:06.701Z,130
2017-06-13T04:52:47.195Z,135
2017-06-13T04:53:27.688Z,135
2017-06-13T04:54:08.181Z,135
2017-06-13T04:54:48.674Z,135
2017-06-13T04:55:29.166Z,135
2017-06-13T04:56:09.655Z,140
2017-06-13T04:56:50.757Z,140
2017-06-13T04:57:31.247Z,140
2017-06-13T04:58:11.740Z,140
2017-06-13T04:58:52.259Z,145
2017-06-13T04:59:32.736Z,145
2017-06-13T05:00:13.226Z,145
2017-06-13T05:00:53.720Z,145
2017-06-13T05:01:34.214Z,145
2017-06-13T05:02:14.707Z,150
2017-06-13T05:02:55.197Z,150
2017-06-13T05:05:23.132Z,150
2017-06-13T05:06:03.650Z,150
2017-06-13T05:06:44.147Z,150
2017-06-13T05:07:24.631Z,150
2017-06-13T05:08:05.131Z,155
2017-06-13T05:08:45.615Z,155
2017-06-13T05:09:26.119Z,155
2017-06-13T05:10:06.605Z,155
2017-06-13T05:10:47.089Z,160
2017-06-13T05:11:27.621Z,160
2017-06-13T05:12:08.116Z,160
2017-06-13T05:12:48.573Z,160
2017-06-13T05:13:29.059Z,170
2017-06-13T05:14:09.556Z,165
2017-06-13T05:14:50.092Z,165
2017-06-13T05:15:30.621Z,165
2017-06-13T05:16:11.107Z,170
2017-06-13T05:16:51.595Z,175
2017-06-13T05:17:32.101Z,170
2017-06-13T05:18:12.586Z,175
2017-06-13T05:18:53.070Z,170
2017-06-13T05:19:33.559Z,175
2017-06-13T05:20:14.042Z,180
2017-06-13T05:20:54.520Z,180
2017-06-13T05:21:35.016Z,180
2017-06-13T05:22:15.516Z,180
2017-06-13T05:22:56.004Z,180
2017-06-13T05:23:36.498Z,180
2017-06-13T05:24:17.000Z,180
2017-06-13T05:24:58.338Z,185
2017-06-13T05:25:38.831Z,185
2017-06-13T05:26:19.323Z,185
2017-06-13T05:26:59.815Z,185
2017-06-13T05:27:40.310Z,185
2017-06-13T05:28:20.830Z,190
2017-06-13T05:29:01.323Z,195
2017-06-13T05:29:41.831Z,190
2017-06-13T05:30:22.351Z,195
2017-06-13T05:31:02.843Z,195
2017-06-13T05:31:43.333Z,195
2017-06-13T05:32:23.833Z,200
2017-06-13T05:33:04.329Z,200
2017-06-13T05:33:44.788Z,200
2017-06-13T05:34:25.299Z,200
2017-06-13T05:35:05.787Z,205
2017-06-13T05:35:46.290Z,205
2017-06-13T05:36:26.779Z,205
2017-06-13T05:37:07.294Z,210
2017-06-13T05:39:35.246Z,215
2017-06-13T05:40:15.720Z,215
2017-06-13T05:40:56.206Z,215
2017-06-13T05:41:36.673Z,215
2017-06-13T05:42:17.150Z,220
2017-06-13T05:42:57.582Z,220
2017-06-13T05:45:30.586Z,225
2017-06-13T05:46:11.080Z,225
2017-06-13T05:46:51.573Z,225
2017-06-13T05:47:32.069Z,225
2017-06-13T05:48:12.535Z,225
2017-06-13T05:48:53.022Z,230
2017-06-13T05:49:33.516Z,230
2017-06-13T05:50:13.991Z,230
2017-06-13T05:50:54.484Z,230
2017-06-13T05:51:34.994Z,235
2017-06-13T05:52:15.480Z,235
2017-06-13T05:52:55.978Z,235
2017-06-13T05:53:36.493Z,240
2017-06-13T05:54:16.991Z,240
2017-06-13T05:54:57.481Z,240
2017-06-13T05:55:38.006Z,240
2017-06-13T05:56:18.474Z,245
2017-06-13T05:56:58.967Z,245
2017-06-13T05:57:39.466Z,245
2017-06-13T05:58:19.979Z,250
2017-06-13T05:59:00.479Z,250
2017-06-13T05:59:40.989Z,255
2017-06-13T06:00:21.487Z,255
2017-06-13T06:01:01.973Z,255
2017-06-13T06:01:42.478Z,255
2017-06-13T06:02:23.021Z,260
2017-06-13T06:03:03.493Z,260
2017-06-13T06:03:43.992Z,260
2017-06-13T06:04:24.477Z,265
2017-06-13T06:05:05.006Z,265
2017-06-13T06:05:45.508Z,265
2017-06-13T06:06:25.995Z,270
2017-06-13T06:07:06.478Z,270
2017-06-13T06:07:46.975Z,270
2017-06-13T06:08:27.468Z,275
2017-06-13T06:09:07.960Z,275
2017-06-13T06:09:48.457Z,275
2017-06-13T06:10:28.965Z,280
2017-06-13T06:11:09.428Z,280
2017-06-13T06:11:49.907Z,280
2017-06-13T06:12:30.404Z,285
2017-06-13T06:13:10.933Z,285
2017-06-13T06:13:51.411Z,285
2017-06-13T06:14:31.917Z,285
2017-06-13T06:15:12.398Z,290
2017-06-13T06:15:52.894Z,290
2017-06-13T06:16:33.385Z,290
2017-06-13T06:17:13.889Z,295
2017-06-13T06:17:54.394Z,295
2017-06-13T06:18:34.860Z,300
2017-06-13T06:19:15.361Z,300
2017-06-13T06:19:55.841Z,300
2017-06-13T06:20:36.357Z,305
2017-06-13T06:21:16.863Z,310
2017-06-13T06:21:57.415Z,315
2017-06-13T06:22:37.940Z,315
2017-06-13T06:23:18.505Z,315
2017-06-13T06:23:58.997Z,315
2017-06-13T06:24:39.497Z,320
2017-06-13T06:25:19.982Z,325
2017-06-13T06:26:00.471Z,325
2017-06-13T06:26:40.969Z,330
2017-06-13T06:27:21.450Z,335
2017-06-13T06:28:01.960Z,335
2017-06-13T06:28:42.454Z,335
2017-06-13T06:29:22.945Z,340
2017-06-13T06:30:03.423Z,340
2017-06-13T06:30:43.920Z,340
2017-06-13T06:31:24.451Z,345
2017-06-13T06:32:04.945Z,350
2017-06-13T06:32:45.447Z,350
2017-06-13T06:33:25.974Z,355
2017-06-13T06:34:06.462Z,360
2017-06-13T06:34:46.949Z,365
2017-06-13T06:35:27.409Z,365
2017-06-13T06:37:55.378Z,375
2017-06-13T06:38:35.965Z,380
2017-06-13T06:39:16.518Z,385
2017-06-13T06:39:57.091Z,385
2017-06-13T06:40:37.638Z,385
2017-06-13T06:41:18.111Z,390
2017-06-13T06:41:58.613Z,395
2017-06-13T06:42:39.121Z,400
2017-06-13T06:43:19.593Z,400
2017-06-13T06:44:00.082Z,405
2017-06-13T06:44:40.588Z,415
2017-06-13T06:45:21.063Z,410
2017-06-13T06:46:01.585Z,415
2017-06-13T06:46:42.059Z,415
2017-06-13T06:47:22.523Z,420
2017-06-13T06:48:03.016Z,425
2017-06-13T06:48:43.499Z,425
2017-06-13T06:49:23.992Z,425
2017-06-13T06:50:04.503Z,425
2017-06-13T06:50:44.990Z,430
2017-06-13T06:51:25.500Z,435
2017-06-13T06:52:05.977Z,440
2017-06-13T06:52:46.480Z,440
2017-06-13T06:53:26.960Z,440
2017-06-13T06:54:07.452Z,445
2017-06-13T06:54:47.955Z,450
2017-06-13T06:55:28.449Z,455
2017-06-13T06:56:08.948Z,455
2017-06-13T06:56:49.439Z,460
2017-06-13T06:57:29.993Z,465
2017-06-13T06:58:10.419Z,465
2017-06-13T06:58:50.913Z,475
2017-06-13T06:59:31.428Z,480
2017-06-13T07:00:11.923Z,485
2017-06-13T07:02:39.899Z,490
2017-06-13T07:03:20.407Z,490
2017-06-13T07:04:00.895Z,495
2017-06-13T07:04:41.379Z,500
2017-06-13T07:05:21.905Z,500
2017-06-13T07:07:55.031Z,515
2017-06-13T07:08:35.474Z,515
2017-06-13T07:09:15.957Z,525
2017-06-13T07:09:56.453Z,530
2017-06-13T07:10:36.965Z,525
2017-06-13T07:11:17.476Z,530
2017-06-13T07:11:57.965Z,530
2017-06-13T07:12:38.453Z,535
2017-06-13T07:13:18.975Z,535
2017-06-13T07:13:59.455Z,535
2017-06-13T07:14:39.960Z,545
2017-06-13T07:15:20.451Z,540
2017-06-13T07:16:00.943Z,545
2017-06-13T07:16:41.438Z,555
2017-06-13T07:17:21.926Z,550
2017-06-13T07:18:02.443Z,550
2017-06-13T07:18:42.931Z,555
2017-06-13T07:19:23.415Z,550
2017-06-13T07:20:03.933Z,550
2017-06-13T07:20:44.436Z,550
2017-06-13T07:21:24.957Z,555
2017-06-13T07:22:05.461Z,550
2017-06-13T07:22:46.015Z,555
2017-06-13T07:23:26.528Z,555
2017-06-13T07:24:07.022Z,560
2017-06-13T07:24:47.545Z,560
2017-06-13T07:25:28.050Z,560
2017-06-13T07:26:08.535Z,565
2017-06-13T07:26:49.070Z,565
2017-06-13T07:27:30.388Z,565
2017-06-13T07:28:10.865Z,570
2017-06-13T07:28:52.294Z,575
2017-06-13T07:29:32.830Z,575
2017-06-13T07:30:13.342Z,575
2017-06-13T07:30:53.841Z,580
2017-06-13T07:31:34.350Z,585
2017-06-13T07:32:14.910Z,580
2017-06-13T07:32:55.431Z,590
2017-06-13T07:33:35.901Z,590
2017-06-13T07:34:16.395Z,595
2017-06-13T07:34:56.891Z,605
2017-06-13T07:35:37.395Z,615
2017-06-13T07:36:17.888Z,620
2017-06-13T07:36:58.386Z,630
2017-06-13T07:37:38.884Z,640
2017-06-13T07:38:19.417Z,665
2017-06-13T07:38:59.900Z,705
2017-06-13T07:39:40.426Z,745
2017-06-13T07:40:20.968Z,765
2017-06-13T07:41:01.495Z,775
2017-06-13T07:43:19.589Z,845
2017-06-13T07:44:00.194Z,865
2017-06-13T07:44:40.573Z,900
2017-06-13T07:45:21.596Z,925
2017-06-13T07:46:02.094Z,1010
2017-06-13T07:46:42.586Z,1175
2017-06-13T07:47:23.073Z,1685
2017-06-13T07:48:03.603Z,2420
2017-06-13T07:48:44.069Z,2805
2017-06-13T07:49:24.584Z,2620
2017-06-13T07:50:05.072Z,2430
2017-06-13T07:50:46.310Z,2390
2017-06-13T07:51:26.830Z,2405
2017-06-13T07:52:07.320Z,2375
2017-06-13T07:52:47.859Z,2150
2017-06-13T07:53:28.362Z,2065
2017-06-13T07:54:08.851Z,2130
2017-06-13T07:54:49.354Z,2295
2017-06-13T07:55:29.890Z,2355
2017-06-13T07:56:10.396Z,2405
2017-06-13T07:58:23.203Z,2130
2017-06-13T07:59:03.676Z,2165
2017-06-13T07:59:44.168Z,2230
2017-06-13T08:00:24.669Z,2260
2017-06-13T08:01:05.148Z,2240
2017-06-13T08:01:45.647Z,2260
2017-06-13T08:02:26.156Z,2275
2017-06-13T08:03:06.642Z,2330
2017-06-13T08:03:47.141Z,2415
2017-06-13T08:04:27.659Z,2450
2017-06-13T08:05:08.228Z,2450
2017-06-13T08:05:48.723Z,2445
2017-06-13T08:06:29.258Z,2425
2017-06-13T08:07:09.782Z,2450
2017-06-13T08:07:50.328Z,2455
2017-06-13T08:08:30.852Z,2490
2017-06-13T08:09:11.366Z,2555
2017-06-13T08:09:51.873Z,2615
2017-06-13T08:10:32.437Z,2545
2017-06-13T08:11:12.942Z,2495
2017-06-13T08:11:53.445Z,2430
2017-06-13T08:12:33.992Z,2415
2017-06-13T08:13:14.489Z,2470
2017-06-13T08:13:55.054Z,2465
2017-06-13T08:14:35.599Z,2535
2017-06-13T08:15:16.114Z,2555
2017-06-13T08:15:56.659Z,2660
2017-06-13T08:16:37.191Z,2630
2017-06-13T08:17:17.722Z,2435
2017-06-13T08:17:58.284Z,2170
2017-06-13T08:18:38.890Z,1930
2017-06-13T08:19:19.397Z,1560
2017-06-13T08:19:59.942Z,1270
2017-06-13T08:20:40.467Z,1070
2017-06-13T08:21:21.026Z,950
2017-06-13T08:22:01.653Z,785
2017-06-13T08:22:42.252Z,705
2017-06-13T08:23:22.848Z,695
2017-06-13T08:24:03.427Z,690
2017-06-13T08:24:43.976Z,685
2017-06-13T08:25:24.462Z,675
2017-06-13T08:27:53.248Z,635
2017-06-13T08:28:33.736Z,630
2017-06-13T08:29:14.301Z,630
2017-06-13T08:29:54.864Z,640
2017-06-13T08:30:35.385Z,655
2017-06-13T08:31:15.858Z,655
2017-06-13T08:31:56.420Z,650
2017-06-13T08:32:36.983Z,640
2017-06-13T08:33:17.487Z,640
2017-06-13T08:33:57.963Z,630
2017-06-13T08:34:38.516Z,600
2017-06-13T08:35:19.051Z,565
2017-06-13T08:35:59.555Z,525
2017-06-13T08:36:40.052Z,495
2017-06-13T08:37:20.557Z,485
2017-06-13T08:38:01.019Z,480
2017-06-13T08:38:41.549Z,480
2017-06-13T08:39:22.110Z,475
2017-06-13T08:40:02.616Z,480
2017-06-13T08:40:43.131Z,485
2017-06-13T08:41:23.622Z,490
2017-06-13T08:42:04.141Z,495
2017-06-13T08:42:44.646Z,505
2017-06-13T08:43:25.211Z,505
2017-06-13T08:44:05.666Z,510
2017-06-13T08:44:46.158Z,515
2017-06-13T08:45:26.668Z,515
2017-06-13T08:46:07.153Z,535
2017-06-13T08:46:47.636Z,605
2017-06-13T08:47:28.120Z,685
2017-06-13T08:50:06.302Z,895
2017-06-13T08:50:46.835Z,935
2017-06-13T08:51:27.330Z,980
2017-06-13T08:52:07.846Z,1050
2017-06-13T08:52:48.357Z,1100
2017-06-13T08:53:28.867Z,1190
2017-06-13T08:54:09.378Z,1235
2017-06-13T08:54:49.900Z,1305
2017-06-13T08:55:30.363Z,1365
2017-06-13T08:56:10.884Z,1505
2017-06-13T08:56:51.322Z,1660
2017-06-13T08:57:31.796Z,1785
2017-06-13T08:58:12.324Z,1865
2017-06-13T08:58:52.805Z,1895
2017-06-13T09:01:25.865Z,2010
2017-06-13T09:02:06.366Z,1950
2017-06-13T09:02:46.928Z,1945
2017-06-13T09:03:27.424Z,1945
2017-06-13T09:04:07.906Z,1940
2017-06-13T09:04:48.479Z,1905
2017-06-13T09:05:28.992Z,1890
2017-06-13T09:06:09.470Z,1870
2017-06-13T09:06:49.960Z,1820
2017-06-13T09:07:30.450Z,1770
2017-06-13T09:08:10.929Z,1775
2017-06-13T09:08:51.472Z,1770
2017-06-13T09:09:31.962Z,1790
2017-06-13T09:10:12.548Z,1765
2017-06-13T09:10:52.987Z,1730
2017-06-13T09:11:33.503Z,1690
2017-06-13T09:12:13.953Z,1705
2017-06-13T09:12:54.442Z,1775
2017-06-13T09:13:35.610Z,1795
2017-06-13T09:15:53.419Z,1775
2017-06-13T09:16:33.872Z,1785
2017-06-13T09:17:14.375Z,1770
2017-06-13T09:17:54.941Z,1745
2017-06-13T09:18:35.498Z,1725
2017-06-13T09:19:16.040Z,1735
2017-06-13T09:19:56.672Z,1740
2017-06-13T09:20:39.926Z,1700
2017-06-13T09:21:20.591Z,1680
2017-06-13T09:22:01.110Z,1655
2017-06-13T09:22:41.631Z,1660
2017-06-13T09:23:22.141Z,1690
2017-06-13T09:24:02.750Z,1720
2017-06-13T09:24:43.491Z,1760
2017-06-13T09:25:23.970Z,1795
2017-06-13T09:26:04.451Z,1925
2017-06-13T09:26:44.977Z,2065
2017-06-13T09:27:25.420Z,2285
2017-06-13T09:29:58.559Z,2930
2017-06-13T09:30:39.092Z,3090
2017-06-13T09:31:19.621Z,3235
2017-06-13T09:32:00.122Z,3340
2017-06-13T09:32:40.652Z,3450
2017-06-13T09:33:21.189Z,3440
2017-06-13T09:34:01.687Z,3440
2017-06-13T09:34:42.209Z,3520
2017-06-13T09:35:22.697Z,3560
2017-06-13T09:36:03.270Z,3605
2017-06-13T09:36:43.754Z,3615
2017-06-13T09:37:24.303Z,3725
2017-06-13T09:38:04.814Z,3860
2017-06-13T09:38:45.318Z,3935
2017-06-13T09:39:25.836Z,4005
2017-06-13T09:40:06.344Z,4100
2017-06-13T09:40:46.847Z,4125
2017-06-13T09:41:27.339Z,4075
2017-06-13T09:42:07.847Z,4040
2017-06-13T09:42:48.411Z,3825
2017-06-13T09:43:28.934Z,3710
2017-06-13T09:44:09.464Z,3665
2017-06-13T09:44:50.611Z,3790
2017-06-13T09:45:31.167Z,3695
2017-06-13T09:46:11.718Z,3715
2017-06-13T09:46:52.278Z,3690
2017-06-13T09:47:32.855Z,3740
2017-06-13T09:48:13.374Z,3805
2017-06-13T09:48:53.863Z,3815
2017-06-13T09:49:34.386Z,3810
2017-06-13T09:50:14.838Z,3840
2017-06-13T09:50:55.333Z,3895
2017-06-13T09:51:35.865Z,3935
2017-06-13T09:52:16.421Z,4005
2017-06-13T09:52:56.972Z,4020
2017-06-13T09:53:37.497Z,3875
2017-06-13T09:54:18.113Z,3585
2017-06-13T09:54:58.679Z,3055
2017-06-13T09:55:39.253Z,2260
2017-06-13T09:56:19.942Z,1590
2017-06-13T09:57:00.416Z,1370
2017-06-13T09:57:40.947Z,1340
2017-06-13T09:58:21.502Z,1295
2017-06-13T09:59:02.029Z,1260
2017-06-13T09:59:42.561Z,1240
2017-06-13T10:00:23.111Z,1260
2017-06-13T10:01:04.433Z,1265
2017-06-13T10:01:44.946Z,1320
2017-06-13T10:02:25.461Z,1355